sensor_id;sensor_type;location;lat;lon;timestamp;P1;durP1;ratioP1;P2;durP2;ratioP2
4616;SDS011;2321;42.704;23.384;2024-03-17T00:00:25;15.00;;;8.40;;
4616;SDS011;2321;42.704;23.384;2024-03-17T00:02:52;14.90;;;8.30;;
4616;SDS011;2321;42.704;23.384;2024-03-17T00:05:18;11.47;;;8.00;;
4616;SDS011;2321;42.704;23.384;2024-03-17T00:07:47;14.60;;;7.77;;
4616;SDS011;2321;42.704;23.384;2024-03-17T00:10:13;8.17;;;5.60;;
4616;SDS011;2321;42.704;23.384;2024-03-17T00:12:41;8.30;;;6.63;;
4616;SDS011;2321;42.704;23.384;2024-03-17T00:15:07;10.63;;;6.67;;
4616;SDS011;2321;42.704;23.384;2024-03-17T00:17:35;11.20;;;6.60;;
4616;SDS011;2321;42.704;23.384;2024-03-17T00:20:02;16.20;;;8.13;;
4616;SDS011;2321;42.704;23.384;2024-03-17T00:22:34;10.57;;;6.40;;
4616;SDS011;2321;42.704;23.384;2024-03-17T00:25:04;12.10;;;6.80;;
4616;SDS011;2321;42.704;23.384;2024-03-17T00:27:32;12.87;;;8.80;;
4616;SDS011;2321;42.704;23.384;2024-03-17T00:29:59;10.60;;;7.00;;
4616;SDS011;2321;42.704;23.384;2024-03-17T00:32:27;8.97;;;5.83;;
4616;SDS011;2321;42.704;23.384;2024-03-17T00:34:55;21.87;;;8.03;;
4616;SDS011;2321;42.704;23.384;2024-03-17T00:37:22;19.37;;;6.40;;
4616;SDS011;2321;42.704;23.384;2024-03-17T00:39:49;27.10;;;11.40;;
4616;SDS011;2321;42.704;23.384;2024-03-17T00:42:18;19.60;;;8.67;;
4616;SDS011;2321;42.704;23.384;2024-03-17T00:44:45;11.03;;;6.30;;
4616;SDS011;2321;42.704;23.384;2024-03-17T00:47:11;20.00;;;8.03;;
4616;SDS011;2321;42.704;23.384;2024-03-17T00:49:38;8.50;;;6.93;;
4616;SDS011;2321;42.704;23.384;2024-03-17T00:52:04;11.43;;;7.10;;
4616;SDS011;2321;42.704;23.384;2024-03-17T00:54:31;15.30;;;8.00;;
4616;SDS011;2321;42.704;23.384;2024-03-17T00:56:57;12.20;;;7.17;;
4616;SDS011;2321;42.704;23.384;2024-03-17T00:59:26;10.20;;;8.20;;
4616;SDS011;2321;42.704;23.384;2024-03-17T01:01:52;8.40;;;6.23;;
4616;SDS011;2321;42.704;23.384;2024-03-17T01:04:19;10.60;;;7.33;;
4616;SDS011;2321;42.704;23.384;2024-03-17T01:06:46;13.80;;;5.90;;
4616;SDS011;2321;42.704;23.384;2024-03-17T01:09:13;12.67;;;7.87;;
4616;SDS011;2321;42.704;23.384;2024-03-17T01:11:39;12.10;;;8.57;;
4616;SDS011;2321;42.704;23.384;2024-03-17T01:14:06;23.17;;;9.23;;
4616;SDS011;2321;42.704;23.384;2024-03-17T01:16:34;21.77;;;9.30;;
4616;SDS011;2321;42.704;23.384;2024-03-17T01:19:01;21.13;;;9.47;;
4616;SDS011;2321;42.704;23.384;2024-03-17T01:21:27;22.20;;;9.83;;
4616;SDS011;2321;42.704;23.384;2024-03-17T01:23:54;23.87;;;8.50;;
4616;SDS011;2321;42.704;23.384;2024-03-17T01:26:21;17.47;;;10.47;;
4616;SDS011;2321;42.704;23.384;2024-03-17T01:28:49;19.70;;;10.80;;
4616;SDS011;2321;42.704;23.384;2024-03-17T01:31:16;28.53;;;12.97;;
4616;SDS011;2321;42.704;23.384;2024-03-17T01:33:43;20.87;;;10.07;;
4616;SDS011;2321;42.704;23.384;2024-03-17T01:36:12;36.50;;;12.50;;
4616;SDS011;2321;42.704;23.384;2024-03-17T01:38:38;16.00;;;9.27;;
4616;SDS011;2321;42.704;23.384;2024-03-17T01:41:05;16.30;;;10.17;;
4616;SDS011;2321;42.704;23.384;2024-03-17T01:43:31;22.90;;;10.03;;
4616;SDS011;2321;42.704;23.384;2024-03-17T01:45:58;22.43;;;11.90;;
4616;SDS011;2321;42.704;23.384;2024-03-17T01:48:24;13.77;;;8.33;;
4616;SDS011;2321;42.704;23.384;2024-03-17T01:50:55;13.80;;;9.63;;
4616;SDS011;2321;42.704;23.384;2024-03-17T01:53:22;18.40;;;10.87;;
4616;SDS011;2321;42.704;23.384;2024-03-17T01:55:50;21.73;;;8.80;;
4616;SDS011;2321;42.704;23.384;2024-03-17T01:58:20;20.90;;;10.70;;
4616;SDS011;2321;42.704;23.384;2024-03-17T02:00:49;28.43;;;12.80;;
4616;SDS011;2321;42.704;23.384;2024-03-17T02:03:15;20.43;;;9.80;;
4616;SDS011;2321;42.704;23.384;2024-03-17T02:05:42;23.53;;;12.80;;
4616;SDS011;2321;42.704;23.384;2024-03-17T02:08:09;20.03;;;10.53;;
4616;SDS011;2321;42.704;23.384;2024-03-17T02:10:37;30.60;;;12.03;;
4616;SDS011;2321;42.704;23.384;2024-03-17T02:13:03;24.87;;;10.30;;
4616;SDS011;2321;42.704;23.384;2024-03-17T02:15:31;32.77;;;12.53;;
4616;SDS011;2321;42.704;23.384;2024-03-17T02:17:57;27.50;;;10.80;;
4616;SDS011;2321;42.704;23.384;2024-03-17T02:20:24;22.43;;;10.63;;
4616;SDS011;2321;42.704;23.384;2024-03-17T02:23:12;30.13;;;10.27;;
4616;SDS011;2321;42.704;23.384;2024-03-17T02:25:39;30.53;;;13.60;;
4616;SDS011;2321;42.704;23.384;2024-03-17T02:28:05;24.30;;;12.63;;
4616;SDS011;2321;42.704;23.384;2024-03-17T02:30:32;26.73;;;11.80;;
4616;SDS011;2321;42.704;23.384;2024-03-17T02:32:58;47.97;;;17.50;;
4616;SDS011;2321;42.704;23.384;2024-03-17T02:35:25;38.77;;;13.23;;
4616;SDS011;2321;42.704;23.384;2024-03-17T02:37:51;28.17;;;11.80;;
4616;SDS011;2321;42.704;23.384;2024-03-17T02:40:20;39.57;;;12.00;;
4616;SDS011;2321;42.704;23.384;2024-03-17T02:42:46;31.20;;;15.63;;
4616;SDS011;2321;42.704;23.384;2024-03-17T02:45:13;33.30;;;13.70;;
4616;SDS011;2321;42.704;23.384;2024-03-17T02:47:41;31.63;;;14.30;;
4616;SDS011;2321;42.704;23.384;2024-03-17T02:50:08;53.23;;;15.30;;
4616;SDS011;2321;42.704;23.384;2024-03-17T02:52:35;42.67;;;14.67;;
4616;SDS011;2321;42.704;23.384;2024-03-17T02:55:03;34.20;;;17.70;;
4616;SDS011;2321;42.704;23.384;2024-03-17T02:57:32;39.23;;;16.87;;
4616;SDS011;2321;42.704;23.384;2024-03-17T02:59:59;24.00;;;14.07;;
4616;SDS011;2321;42.704;23.384;2024-03-17T03:02:25;25.47;;;13.23;;
4616;SDS011;2321;42.704;23.384;2024-03-17T03:04:52;25.03;;;11.97;;
4616;SDS011;2321;42.704;23.384;2024-03-17T03:07:20;20.43;;;10.07;;
4616;SDS011;2321;42.704;23.384;2024-03-17T03:09:47;17.10;;;8.80;;
4616;SDS011;2321;42.704;23.384;2024-03-17T03:12:14;18.83;;;9.40;;
4616;SDS011;2321;42.704;23.384;2024-03-17T03:14:43;28.80;;;10.70;;
4616;SDS011;2321;42.704;23.384;2024-03-17T03:17:10;28.90;;;13.30;;
4616;SDS011;2321;42.704;23.384;2024-03-17T03:19:37;37.20;;;10.10;;
4616;SDS011;2321;42.704;23.384;2024-03-17T03:22:04;22.83;;;11.80;;
4616;SDS011;2321;42.704;23.384;2024-03-17T03:24:31;21.20;;;11.80;;
4616;SDS011;2321;42.704;23.384;2024-03-17T03:26:58;20.33;;;10.13;;
4616;SDS011;2321;42.704;23.384;2024-03-17T03:29:26;19.93;;;10.13;;
4616;SDS011;2321;42.704;23.384;2024-03-17T03:31:55;12.03;;;9.03;;
4616;SDS011;2321;42.704;23.384;2024-03-17T03:34:22;17.53;;;10.40;;
4616;SDS011;2321;42.704;23.384;2024-03-17T03:36:49;19.13;;;10.20;;
4616;SDS011;2321;42.704;23.384;2024-03-17T03:39:17;14.53;;;11.43;;
4616;SDS011;2321;42.704;23.384;2024-03-17T03:41:45;16.53;;;9.27;;
4616;SDS011;2321;42.704;23.384;2024-03-17T03:44:12;66.40;;;21.37;;
4616;SDS011;2321;42.704;23.384;2024-03-17T03:46:39;26.13;;;10.10;;
4616;SDS011;2321;42.704;23.384;2024-03-17T03:49:08;16.17;;;9.13;;
4616;SDS011;2321;42.704;23.384;2024-03-17T03:51:35;8.60;;;5.70;;
4616;SDS011;2321;42.704;23.384;2024-03-17T03:54:02;11.00;;;7.43;;
4616;SDS011;2321;42.704;23.384;2024-03-17T03:56:31;11.90;;;5.83;;
4616;SDS011;2321;42.704;23.384;2024-03-17T03:58:58;17.73;;;7.10;;
4616;SDS011;2321;42.704;23.384;2024-03-17T04:01:25;19.83;;;5.60;;
4616;SDS011;2321;42.704;23.384;2024-03-17T04:03:52;12.50;;;5.70;;
4616;SDS011;2321;42.704;23.384;2024-03-17T04:06:21;21.43;;;6.47;;
4616;SDS011;2321;42.704;23.384;2024-03-17T04:08:48;13.97;;;6.73;;
4616;SDS011;2321;42.704;23.384;2024-03-17T04:11:15;10.03;;;6.40;;
4616;SDS011;2321;42.704;23.384;2024-03-17T04:13:42;11.73;;;6.97;;
4616;SDS011;2321;42.704;23.384;2024-03-17T04:16:09;8.47;;;6.70;;
4616;SDS011;2321;42.704;23.384;2024-03-17T04:18:37;12.97;;;9.00;;
4616;SDS011;2321;42.704;23.384;2024-03-17T04:21:07;15.20;;;7.90;;
4616;SDS011;2321;42.704;23.384;2024-03-17T04:23:35;23.07;;;7.87;;
4616;SDS011;2321;42.704;23.384;2024-03-17T04:26:03;17.33;;;8.77;;
4616;SDS011;2321;42.704;23.384;2024-03-17T04:28:32;16.10;;;7.70;;
4616;SDS011;2321;42.704;23.384;2024-03-17T04:31:03;14.70;;;8.80;;
4616;SDS011;2321;42.704;23.384;2024-03-17T04:33:31;18.13;;;9.03;;
4616;SDS011;2321;42.704;23.384;2024-03-17T04:35:59;8.20;;;6.87;;
4616;SDS011;2321;42.704;23.384;2024-03-17T04:38:27;13.13;;;8.30;;
4616;SDS011;2321;42.704;23.384;2024-03-17T04:40:56;9.03;;;5.80;;
4616;SDS011;2321;42.704;23.384;2024-03-17T04:43:29;8.77;;;6.70;;
4616;SDS011;2321;42.704;23.384;2024-03-17T04:46:01;25.10;;;9.70;;
4616;SDS011;2321;42.704;23.384;2024-03-17T04:48:30;19.53;;;11.53;;
4616;SDS011;2321;42.704;23.384;2024-03-17T04:50:58;20.67;;;10.40;;
4616;SDS011;2321;42.704;23.384;2024-03-17T04:53:25;19.27;;;8.80;;
4616;SDS011;2321;42.704;23.384;2024-03-17T04:56:01;25.10;;;10.43;;
4616;SDS011;2321;42.704;23.384;2024-03-17T04:58:30;14.60;;;8.97;;
4616;SDS011;2321;42.704;23.384;2024-03-17T05:00:57;16.03;;;9.17;;
4616;SDS011;2321;42.704;23.384;2024-03-17T05:03:29;45.47;;;9.23;;
4616;SDS011;2321;42.704;23.384;2024-03-17T05:05:59;30.93;;;10.20;;
4616;SDS011;2321;42.704;23.384;2024-03-17T05:08:29;8.13;;;7.17;;
4616;SDS011;2321;42.704;23.384;2024-03-17T05:10:58;15.17;;;8.53;;
4616;SDS011;2321;42.704;23.384;2024-03-17T05:13:27;12.53;;;7.80;;
4616;SDS011;2321;42.704;23.384;2024-03-17T05:15:54;23.63;;;8.57;;
4616;SDS011;2321;42.704;23.384;2024-03-17T05:18:21;20.73;;;8.17;;
4616;SDS011;2321;42.704;23.384;2024-03-17T05:20:59;19.13;;;9.30;;
4616;SDS011;2321;42.704;23.384;2024-03-17T05:23:29;23.03;;;9.67;;
4616;SDS011;2321;42.704;23.384;2024-03-17T05:25:57;12.80;;;8.87;;
4616;SDS011;2321;42.704;23.384;2024-03-17T05:28:24;16.77;;;9.83;;
4616;SDS011;2321;42.704;23.384;2024-03-17T05:30:54;18.73;;;9.10;;
4616;SDS011;2321;42.704;23.384;2024-03-17T05:33:22;14.27;;;7.77;;
4616;SDS011;2321;42.704;23.384;2024-03-17T05:35:50;9.07;;;6.83;;
4616;SDS011;2321;42.704;23.384;2024-03-17T05:38:18;8.23;;;7.20;;
4616;SDS011;2321;42.704;23.384;2024-03-17T05:40:55;11.83;;;7.70;;
4616;SDS011;2321;42.704;23.384;2024-03-17T05:43:25;12.70;;;7.77;;
4616;SDS011;2321;42.704;23.384;2024-03-17T05:45:54;10.80;;;7.17;;
4616;SDS011;2321;42.704;23.384;2024-03-17T05:48:24;15.43;;;8.23;;
4616;SDS011;2321;42.704;23.384;2024-03-17T05:50:51;24.23;;;8.10;;
4616;SDS011;2321;42.704;23.384;2024-03-17T05:53:18;11.17;;;6.57;;
4616;SDS011;2321;42.704;23.384;2024-03-17T05:55:46;11.53;;;6.73;;
4616;SDS011;2321;42.704;23.384;2024-03-17T05:58:13;10.87;;;6.77;;
4616;SDS011;2321;42.704;23.384;2024-03-17T06:00:42;10.83;;;7.20;;
4616;SDS011;2321;42.704;23.384;2024-03-17T06:03:09;28.37;;;4.90;;
4616;SDS011;2321;42.704;23.384;2024-03-17T06:05:37;9.00;;;4.90;;
4616;SDS011;2321;42.704;23.384;2024-03-17T06:08:06;7.80;;;6.43;;
4616;SDS011;2321;42.704;23.384;2024-03-17T06:10:34;18.33;;;6.33;;
4616;SDS011;2321;42.704;23.384;2024-03-17T06:13:02;13.13;;;6.90;;
4616;SDS011;2321;42.704;23.384;2024-03-17T06:15:30;11.80;;;5.83;;
4616;SDS011;2321;42.704;23.384;2024-03-17T06:17:59;8.13;;;5.83;;
4616;SDS011;2321;42.704;23.384;2024-03-17T06:20:27;12.57;;;5.87;;
4616;SDS011;2321;42.704;23.384;2024-03-17T06:22:54;11.63;;;4.50;;
4616;SDS011;2321;42.704;23.384;2024-03-17T06:25:22;14.63;;;5.17;;
4616;SDS011;2321;42.704;23.384;2024-03-17T06:27:50;10.07;;;5.60;;
4616;SDS011;2321;42.704;23.384;2024-03-17T06:30:17;13.70;;;4.40;;
4616;SDS011;2321;42.704;23.384;2024-03-17T06:32:45;11.00;;;6.17;;
4616;SDS011;2321;42.704;23.384;2024-03-17T06:35:14;3.77;;;3.43;;
4616;SDS011;2321;42.704;23.384;2024-03-17T06:37:43;25.30;;;6.80;;
4616;SDS011;2321;42.704;23.384;2024-03-17T06:40:11;6.07;;;4.67;;
4616;SDS011;2321;42.704;23.384;2024-03-17T06:42:40;21.33;;;6.20;;
4616;SDS011;2321;42.704;23.384;2024-03-17T06:45:08;10.13;;;5.63;;
4616;SDS011;2321;42.704;23.384;2024-03-17T06:47:35;42.63;;;15.30;;
4616;SDS011;2321;42.704;23.384;2024-03-17T06:50:03;62.60;;;21.27;;
4616;SDS011;2321;42.704;23.384;2024-03-17T06:52:31;15.13;;;6.60;;
4616;SDS011;2321;42.704;23.384;2024-03-17T06:54:58;28.83;;;8.70;;
4616;SDS011;2321;42.704;23.384;2024-03-17T06:57:26;7.60;;;5.60;;
4616;SDS011;2321;42.704;23.384;2024-03-17T06:59:53;9.90;;;5.90;;
4616;SDS011;2321;42.704;23.384;2024-03-17T07:02:20;20.60;;;6.13;;
4616;SDS011;2321;42.704;23.384;2024-03-17T07:04:47;18.03;;;7.57;;
4616;SDS011;2321;42.704;23.384;2024-03-17T07:07:15;19.40;;;7.93;;
4616;SDS011;2321;42.704;23.384;2024-03-17T07:09:43;65.40;;;15.70;;
4616;SDS011;2321;42.704;23.384;2024-03-17T07:12:13;28.07;;;9.40;;
4616;SDS011;2321;42.704;23.384;2024-03-17T07:14:40;9.40;;;7.00;;
4616;SDS011;2321;42.704;23.384;2024-03-17T07:17:07;31.70;;;10.50;;
4616;SDS011;2321;42.704;23.384;2024-03-17T07:19:34;22.93;;;9.07;;
4616;SDS011;2321;42.704;23.384;2024-03-17T07:22:01;23.33;;;10.67;;
4616;SDS011;2321;42.704;23.384;2024-03-17T07:24:29;22.63;;;7.57;;
4616;SDS011;2321;42.704;23.384;2024-03-17T07:26:58;17.93;;;8.77;;
4616;SDS011;2321;42.704;23.384;2024-03-17T07:29:25;18.27;;;8.67;;
4616;SDS011;2321;42.704;23.384;2024-03-17T07:31:52;10.97;;;7.70;;
4616;SDS011;2321;42.704;23.384;2024-03-17T07:34:19;22.57;;;9.70;;
4616;SDS011;2321;42.704;23.384;2024-03-17T07:36:46;11.20;;;7.83;;
4616;SDS011;2321;42.704;23.384;2024-03-17T07:39:13;11.57;;;6.53;;
4616;SDS011;2321;42.704;23.384;2024-03-17T07:41:41;8.13;;;6.40;;
4616;SDS011;2321;42.704;23.384;2024-03-17T07:44:10;9.60;;;6.07;;
4616;SDS011;2321;42.704;23.384;2024-03-17T07:46:37;8.27;;;6.03;;
4616;SDS011;2321;42.704;23.384;2024-03-17T07:49:04;11.30;;;6.50;;
4616;SDS011;2321;42.704;23.384;2024-03-17T07:51:32;11.13;;;6.17;;
4616;SDS011;2321;42.704;23.384;2024-03-17T07:53:59;8.37;;;7.03;;
4616;SDS011;2321;42.704;23.384;2024-03-17T07:56:26;7.83;;;6.13;;
4616;SDS011;2321;42.704;23.384;2024-03-17T07:58:55;12.83;;;8.10;;
4616;SDS011;2321;42.704;23.384;2024-03-17T08:01:24;12.00;;;9.03;;
4616;SDS011;2321;42.704;23.384;2024-03-17T08:03:52;13.30;;;8.10;;
4616;SDS011;2321;42.704;23.384;2024-03-17T08:06:21;9.57;;;5.40;;
4616;SDS011;2321;42.704;23.384;2024-03-17T08:08:49;10.10;;;6.43;;
4616;SDS011;2321;42.704;23.384;2024-03-17T08:11:16;17.73;;;6.17;;
4616;SDS011;2321;42.704;23.384;2024-03-17T08:13:43;15.30;;;6.47;;
4616;SDS011;2321;42.704;23.384;2024-03-17T08:16:11;6.63;;;4.80;;
4616;SDS011;2321;42.704;23.384;2024-03-17T08:18:40;8.90;;;6.17;;
4616;SDS011;2321;42.704;23.384;2024-03-17T08:21:07;14.47;;;7.33;;
4616;SDS011;2321;42.704;23.384;2024-03-17T08:23:34;7.50;;;5.80;;
4616;SDS011;2321;42.704;23.384;2024-03-17T08:26:06;7.37;;;5.30;;
4616;SDS011;2321;42.704;23.384;2024-03-17T08:28:35;8.30;;;5.50;;
4616;SDS011;2321;42.704;23.384;2024-03-17T08:31:02;4.10;;;3.80;;
4616;SDS011;2321;42.704;23.384;2024-03-17T08:33:30;12.77;;;5.90;;
4616;SDS011;2321;42.704;23.384;2024-03-17T08:36:00;9.67;;;4.90;;
4616;SDS011;2321;42.704;23.384;2024-03-17T08:38:29;4.97;;;4.57;;
4616;SDS011;2321;42.704;23.384;2024-03-17T08:40:57;6.00;;;4.43;;
4616;SDS011;2321;42.704;23.384;2024-03-17T08:43:28;7.50;;;5.40;;
4616;SDS011;2321;42.704;23.384;2024-03-17T08:45:55;6.97;;;5.57;;
4616;SDS011;2321;42.704;23.384;2024-03-17T08:48:25;9.80;;;5.83;;
4616;SDS011;2321;42.704;23.384;2024-03-17T08:50:54;16.87;;;7.80;;
4616;SDS011;2321;42.704;23.384;2024-03-17T08:53:23;14.23;;;5.80;;
4616;SDS011;2321;42.704;23.384;2024-03-17T08:55:50;8.40;;;5.63;;
4616;SDS011;2321;42.704;23.384;2024-03-17T08:58:17;9.50;;;7.07;;
4616;SDS011;2321;42.704;23.384;2024-03-17T09:00:44;15.77;;;8.03;;
4616;SDS011;2321;42.704;23.384;2024-03-17T09:03:12;9.43;;;5.63;;
4616;SDS011;2321;42.704;23.384;2024-03-17T09:05:40;14.10;;;6.23;;
4616;SDS011;2321;42.704;23.384;2024-03-17T09:08:07;11.70;;;7.20;;
4616;SDS011;2321;42.704;23.384;2024-03-17T09:10:40;8.23;;;6.47;;
4616;SDS011;2321;42.704;23.384;2024-03-17T09:13:07;16.33;;;5.60;;
4616;SDS011;2321;42.704;23.384;2024-03-17T09:15:39;12.97;;;6.57;;
4616;SDS011;2321;42.704;23.384;2024-03-17T09:18:06;11.57;;;6.30;;
4616;SDS011;2321;42.704;23.384;2024-03-17T09:20:33;15.73;;;8.10;;
4616;SDS011;2321;42.704;23.384;2024-03-17T09:23:00;15.43;;;5.30;;
4616;SDS011;2321;42.704;23.384;2024-03-17T09:25:28;9.23;;;3.70;;
4616;SDS011;2321;42.704;23.384;2024-03-17T09:27:57;6.50;;;4.30;;
4616;SDS011;2321;42.704;23.384;2024-03-17T09:30:24;14.57;;;5.63;;
4616;SDS011;2321;42.704;23.384;2024-03-17T09:32:51;10.00;;;5.73;;
4616;SDS011;2321;42.704;23.384;2024-03-17T09:35:18;10.00;;;5.90;;
4616;SDS011;2321;42.704;23.384;2024-03-17T09:37:45;14.30;;;5.37;;
4616;SDS011;2321;42.704;23.384;2024-03-17T09:40:15;5.00;;;4.30;;
4616;SDS011;2321;42.704;23.384;2024-03-17T09:42:42;11.93;;;6.60;;
4616;SDS011;2321;42.704;23.384;2024-03-17T09:45:13;9.20;;;5.03;;
4616;SDS011;2321;42.704;23.384;2024-03-17T09:47:43;12.85;;;6.90;;
4616;SDS011;2321;42.704;23.384;2024-03-17T09:52:52;5.93;;;4.40;;
4616;SDS011;2321;42.704;23.384;2024-03-17T09:55:19;7.70;;;4.80;;
4616;SDS011;2321;42.704;23.384;2024-03-17T09:57:47;4.83;;;4.00;;
4616;SDS011;2321;42.704;23.384;2024-03-17T10:00:16;8.60;;;5.03;;
4616;SDS011;2321;42.704;23.384;2024-03-17T10:02:44;7.10;;;5.10;;
4616;SDS011;2321;42.704;23.384;2024-03-17T10:05:18;9.33;;;4.60;;
4616;SDS011;2321;42.704;23.384;2024-03-17T10:07:47;6.53;;;4.30;;
4616;SDS011;2321;42.704;23.384;2024-03-17T10:10:15;8.60;;;4.20;;
4616;SDS011;2321;42.704;23.384;2024-03-17T10:12:43;5.20;;;3.77;;
4616;SDS011;2321;42.704;23.384;2024-03-17T10:15:11;6.53;;;4.43;;
4616;SDS011;2321;42.704;23.384;2024-03-17T10:17:40;3.33;;;3.03;;
4616;SDS011;2321;42.704;23.384;2024-03-17T10:20:14;13.60;;;4.37;;
4616;SDS011;2321;42.704;23.384;2024-03-17T10:23:01;5.60;;;4.67;;
4616;SDS011;2321;42.704;23.384;2024-03-17T10:25:30;4.03;;;3.70;;
4616;SDS011;2321;42.704;23.384;2024-03-17T10:27:58;3.83;;;3.50;;
4616;SDS011;2321;42.704;23.384;2024-03-17T10:30:26;4.87;;;3.20;;
4616;SDS011;2321;42.704;23.384;2024-03-17T10:32:57;4.10;;;3.73;;
4616;SDS011;2321;42.704;23.384;2024-03-17T10:35:29;8.37;;;3.47;;
4616;SDS011;2321;42.704;23.384;2024-03-17T10:37:58;6.17;;;3.47;;
4616;SDS011;2321;42.704;23.384;2024-03-17T10:40:26;3.70;;;3.00;;
4616;SDS011;2321;42.704;23.384;2024-03-17T10:42:55;10.70;;;3.73;;
4616;SDS011;2321;42.704;23.384;2024-03-17T10:45:22;3.70;;;2.97;;
4616;SDS011;2321;42.704;23.384;2024-03-17T10:47:51;3.83;;;2.53;;
4616;SDS011;2321;42.704;23.384;2024-03-17T10:50:20;3.00;;;2.47;;
4616;SDS011;2321;42.704;23.384;2024-03-17T10:52:49;1.90;;;1.77;;
4616;SDS011;2321;42.704;23.384;2024-03-17T10:55:21;3.70;;;3.27;;
4616;SDS011;2321;42.704;23.384;2024-03-17T10:57:50;8.33;;;2.83;;
4616;SDS011;2321;42.704;23.384;2024-03-17T11:00:18;10.03;;;2.57;;
4616;SDS011;2321;42.704;23.384;2024-03-17T11:02:47;4.03;;;2.77;;
4616;SDS011;2321;42.704;23.384;2024-03-17T11:05:18;2.43;;;2.33;;
4616;SDS011;2321;42.704;23.384;2024-03-17T11:07:49;7.77;;;4.47;;
4616;SDS011;2321;42.704;23.384;2024-03-17T11:10:20;5.77;;;3.83;;
4616;SDS011;2321;42.704;23.384;2024-03-17T11:12:49;7.43;;;2.70;;
4616;SDS011;2321;42.704;23.384;2024-03-17T11:15:39;3.80;;;3.30;;
4616;SDS011;2321;42.704;23.384;2024-03-17T11:21:05;7.07;;;3.27;;
4616;SDS011;2321;42.704;23.384;2024-03-17T11:23:57;3.63;;;3.20;;
4616;SDS011;2321;42.704;23.384;2024-03-17T11:26:28;3.77;;;3.47;;
4616;SDS011;2321;42.704;23.384;2024-03-17T11:28:57;3.63;;;2.30;;
4616;SDS011;2321;42.704;23.384;2024-03-17T11:31:32;5.03;;;3.50;;
4616;SDS011;2321;42.704;23.384;2024-03-17T11:34:32;3.53;;;3.23;;
4616;SDS011;2321;42.704;23.384;2024-03-17T11:37:06;8.80;;;4.93;;
4616;SDS011;2321;42.704;23.384;2024-03-17T11:39:49;3.43;;;2.70;;
4616;SDS011;2321;42.704;23.384;2024-03-17T11:42:24;2.87;;;2.67;;
4616;SDS011;2321;42.704;23.384;2024-03-17T11:45:04;10.17;;;3.50;;
4616;SDS011;2321;42.704;23.384;2024-03-17T11:47:36;2.90;;;2.60;;
4616;SDS011;2321;42.704;23.384;2024-03-17T11:50:04;4.80;;;3.33;;
4616;SDS011;2321;42.704;23.384;2024-03-17T11:52:34;18.67;;;9.67;;
4616;SDS011;2321;42.704;23.384;2024-03-17T11:55:00;6.80;;;3.27;;
4616;SDS011;2321;42.704;23.384;2024-03-17T11:57:29;3.13;;;2.93;;
4616;SDS011;2321;42.704;23.384;2024-03-17T11:59:55;2.70;;;2.50;;
4616;SDS011;2321;42.704;23.384;2024-03-17T12:02:24;3.10;;;2.87;;
4616;SDS011;2321;42.704;23.384;2024-03-17T12:04:51;6.80;;;3.70;;
4616;SDS011;2321;42.704;23.384;2024-03-17T12:07:20;26.30;;;3.50;;
4616;SDS011;2321;42.704;23.384;2024-03-17T12:09:50;4.80;;;3.00;;
4616;SDS011;2321;42.704;23.384;2024-03-17T12:12:19;2.70;;;2.50;;
4616;SDS011;2321;42.704;23.384;2024-03-17T12:14:46;5.93;;;3.27;;
4616;SDS011;2321;42.704;23.384;2024-03-17T12:17:14;3.23;;;2.93;;
4616;SDS011;2321;42.704;23.384;2024-03-17T12:19:45;5.00;;;3.47;;
4616;SDS011;2321;42.704;23.384;2024-03-17T12:33:46;2.90;;;2.57;;
4616;SDS011;2321;42.704;23.384;2024-03-17T13:00:43;3.87;;;2.77;;
4616;SDS011;2321;42.704;23.384;2024-03-17T13:03:21;12.60;;;5.07;;
4616;SDS011;2321;42.704;23.384;2024-03-17T13:05:50;4.83;;;4.00;;
4616;SDS011;2321;42.704;23.384;2024-03-17T13:08:18;2.40;;;2.30;;
4616;SDS011;2321;42.704;23.384;2024-03-17T13:10:46;5.13;;;4.60;;
4616;SDS011;2321;42.704;23.384;2024-03-17T13:13:13;9.60;;;5.53;;
4616;SDS011;2321;42.704;23.384;2024-03-17T13:15:43;6.60;;;4.47;;
4616;SDS011;2321;42.704;23.384;2024-03-17T13:18:15;5.20;;;3.87;;
4616;SDS011;2321;42.704;23.384;2024-03-17T13:20:45;4.57;;;4.07;;
4616;SDS011;2321;42.704;23.384;2024-03-17T13:23:14;4.67;;;3.40;;
4616;SDS011;2321;42.704;23.384;2024-03-17T13:25:42;3.97;;;3.33;;
4616;SDS011;2321;42.704;23.384;2024-03-17T13:28:10;11.33;;;5.00;;
4616;SDS011;2321;42.704;23.384;2024-03-17T13:30:38;6.10;;;3.73;;
4616;SDS011;2321;42.704;23.384;2024-03-17T13:33:08;4.80;;;3.27;;
4616;SDS011;2321;42.704;23.384;2024-03-17T13:35:37;4.27;;;3.87;;
4616;SDS011;2321;42.704;23.384;2024-03-17T13:38:07;7.53;;;4.70;;
4616;SDS011;2321;42.704;23.384;2024-03-17T13:40:36;9.83;;;5.90;;
4616;SDS011;2321;42.704;23.384;2024-03-17T13:43:04;4.77;;;3.83;;
4616;SDS011;2321;42.704;23.384;2024-03-17T13:45:37;6.63;;;3.80;;
4616;SDS011;2321;42.704;23.384;2024-03-17T13:48:07;4.90;;;4.40;;
4616;SDS011;2321;42.704;23.384;2024-03-17T13:50:36;8.80;;;4.07;;
4616;SDS011;2321;42.704;23.384;2024-03-17T13:53:06;5.07;;;4.53;;
4616;SDS011;2321;42.704;23.384;2024-03-17T13:55:33;12.60;;;7.40;;
4616;SDS011;2321;42.704;23.384;2024-03-17T13:58:00;3.77;;;3.40;;
4616;SDS011;2321;42.704;23.384;2024-03-17T14:00:29;12.60;;;4.57;;
4616;SDS011;2321;42.704;23.384;2024-03-17T14:03:01;14.03;;;6.37;;
4616;SDS011;2321;42.704;23.384;2024-03-17T14:05:30;14.90;;;6.00;;
4616;SDS011;2321;42.704;23.384;2024-03-17T14:07:59;9.90;;;5.63;;
4616;SDS011;2321;42.704;23.384;2024-03-17T14:10:26;6.63;;;4.57;;
4616;SDS011;2321;42.704;23.384;2024-03-17T14:12:53;6.50;;;4.97;;
4616;SDS011;2321;42.704;23.384;2024-03-17T14:30:02;5.33;;;4.40;;
4616;SDS011;2321;42.704;23.384;2024-03-17T15:13:54;13.57;;;7.00;;
4616;SDS011;2321;42.704;23.384;2024-03-17T15:16:22;15.50;;;7.17;;
4616;SDS011;2321;42.704;23.384;2024-03-17T15:18:49;6.73;;;4.97;;
4616;SDS011;2321;42.704;23.384;2024-03-17T15:21:16;22.43;;;9.13;;
4616;SDS011;2321;42.704;23.384;2024-03-17T15:23:44;10.57;;;7.07;;
4616;SDS011;2321;42.704;23.384;2024-03-17T15:26:11;11.80;;;6.90;;
4616;SDS011;2321;42.704;23.384;2024-03-17T15:28:42;12.10;;;5.73;;
4616;SDS011;2321;42.704;23.384;2024-03-17T15:31:11;9.03;;;6.10;;
4616;SDS011;2321;42.704;23.384;2024-03-17T15:33:38;11.90;;;6.40;;
4616;SDS011;2321;42.704;23.384;2024-03-17T15:36:07;11.53;;;6.50;;
4616;SDS011;2321;42.704;23.384;2024-03-17T15:38:35;5.90;;;5.30;;
4616;SDS011;2321;42.704;23.384;2024-03-17T15:41:03;9.73;;;5.20;;
4616;SDS011;2321;42.704;23.384;2024-03-17T15:43:31;7.87;;;5.00;;
4616;SDS011;2321;42.704;23.384;2024-03-17T15:45:59;18.97;;;7.57;;
4616;SDS011;2321;42.704;23.384;2024-03-17T15:48:27;11.03;;;4.83;;
4616;SDS011;2321;42.704;23.384;2024-03-17T15:50:55;16.23;;;6.73;;
4616;SDS011;2321;42.704;23.384;2024-03-17T15:53:23;8.00;;;5.73;;
4616;SDS011;2321;42.704;23.384;2024-03-17T15:55:54;18.83;;;7.67;;
4616;SDS011;2321;42.704;23.384;2024-03-17T15:58:22;11.27;;;6.87;;
4616;SDS011;2321;42.704;23.384;2024-03-17T16:00:49;19.87;;;8.57;;
4616;SDS011;2321;42.704;23.384;2024-03-17T16:03:17;16.83;;;6.40;;
4616;SDS011;2321;42.704;23.384;2024-03-17T16:05:46;27.53;;;6.73;;
4616;SDS011;2321;42.704;23.384;2024-03-17T16:08:14;12.60;;;6.60;;
4616;SDS011;2321;42.704;23.384;2024-03-17T16:10:42;8.03;;;5.10;;
4616;SDS011;2321;42.704;23.384;2024-03-17T16:13:13;6.10;;;5.07;;
4616;SDS011;2321;42.704;23.384;2024-03-17T16:15:42;11.93;;;6.83;;
4616;SDS011;2321;42.704;23.384;2024-03-17T16:18:12;4.60;;;3.93;;
4616;SDS011;2321;42.704;23.384;2024-03-17T16:20:49;6.43;;;5.50;;
4616;SDS011;2321;42.704;23.384;2024-03-17T16:23:26;13.50;;;5.70;;
4616;SDS011;2321;42.704;23.384;2024-03-17T16:25:56;5.50;;;5.30;;
4616;SDS011;2321;42.704;23.384;2024-03-17T16:28:24;16.63;;;7.13;;
4616;SDS011;2321;42.704;23.384;2024-03-17T16:30:52;23.67;;;9.53;;
4616;SDS011;2321;42.704;23.384;2024-03-17T16:33:21;14.70;;;6.90;;
4616;SDS011;2321;42.704;23.384;2024-03-17T16:35:50;22.30;;;10.20;;